• Join FlightAware (Why Join?)
  • Login
  • US Flag 
01:58PM EDT


 

Airport Tracker/Info


-or-


 

Live Flight TrackerFlight Track Log ✈ AWI3704 ✈ 19-May-2013 ✈ KPHL - KALB

Flight Track Log - Related Links

Times and Time Zones

All times are in EDT time to prevent confusion due to time zone crossing. See the AWI3704 flight status page for this flight to view local times or setup timezone preferences in your user account.

Time Position Orientation Groundspeed Altitude Reporting Facility
EDT Latitude Longitude Course Direction KTS MPH feet Rate Location/Type
10:02AM 39.8833 -75.2167 37° Northeast 162 186 1,200  Level Philadelphia TRACON
10:03AM 39.8667 -75.1833 123° Southeast 161 185 2,400 2,280 Climbing Philadelphia TRACON
10:04AM 39.8667 -75.1000 90° East 285 328 4,900 2,580 Climbing Philadelphia TRACON
10:05AM 39.8167 -74.9130 90° East  Level FlightAware Approximate
10:06AM 39.8039 -74.8026 105° East  Level FlightAware Approximate
10:06AM 39.8267 -74.8983 104° East 294 338 10,600  Level New York Center
10:07AM 39.7873 -74.6961 37° Northeast  Level FlightAware Approximate
10:07AM 39.8092 -74.7972 103° East 309 356 12,000  Level New York Center
10:08AM 39.8558 -74.6276 37° Northeast  Level FlightAware Approximate
10:08AM 39.8219 -74.6683 83° East 343 395 13,200  Level New York Center
10:09AM 39.9036 -74.5972 34° Northeast 307 353 16,000 2,580 Climbing New York Center
10:10AM 39.9850 -74.5258 34° Northeast 317 365 18,400 2,100 Climbing New York Center
10:11AM 40.0644 -74.4514 36° Northeast 336 387 20,200 1,680 Climbing New York Center
10:12AM 40.1439 -74.3742 37° Northeast 346 398 21,900 1,620 Climbing New York Center
10:13AM 40.2258 -74.2914 38° Northeast 352 405 23,500 1,020 Climbing New York Center
10:14AM 40.3172 -74.2253 29° Northeast 357 411 24,000 240 Climbing New York Center
10:15AM 40.4153 -74.1483 31° Northeast 387 445 24,000  Level New York Center
10:16AM 40.6014 -74.0117 29° Northeast 440 506 24,000  Level Boston Center
10:17AM 40.7108 -73.9322 29° Northeast 447 514 24,000  Level Boston Center
10:18AM 40.8164 -73.8333 35° Northeast 452 520 24,000  Level Boston Center
10:19AM 40.9136 -73.7172 42° Northeast 464 534 24,000 -300 Level Boston Center
10:20AM 41.0125 -73.6147 38° Northeast 464 534 23,400 -540 Descending Boston Center
10:21AM 41.1258 -73.5394 27° Northeast 454 522 23,000 -780 Descending Boston Center
10:23AM 41.2600 -73.4453 28° Northeast 449 517 21,700 -1,140 Descending Boston Center
10:24AM 41.3539 -73.4411 North 424 488 20,500 -1,320 Descending Boston Center
10:25AM 41.4725 -73.4514 356° North 398 458 19,100 -1,260 Descending Boston Center
10:26AM 41.5956 -73.4672 355° North 392 451 18,000 -1,140 Descending Boston Center
10:27AM 41.6933 -73.4797 355° North 401 461 16,900 -1,500 Descending Boston Center
10:28AM 41.8142 -73.4931 355° North 396 456 15,100 -1,620 Descending Boston Center
10:29AM 41.9097 -73.5031 356° North 396 456 13,700 -1,560 Descending Boston Center
10:30AM 42.0242 -73.5189 354° North 383 441 12,100 -1,320 Descending Boston Center
10:31AM 42.1200 -73.5261 357° North 385 443 11,100 -600 Descending Boston Center
10:32AM 42.2136 -73.5586 346° North 367 422 11,000 -840 Descending Boston Center
10:33AM 42.3028 -73.5939 344° North 282 325 9,500 -1,440 Descending Boston Center
10:34AM 42.3817 -73.6178 347° North 285 328 8,200 -1,440 Descending Boston Center
10:35AM 42.4589 -73.6306 353° North 280 322 6,700 -1,500 Descending Boston Center
10:36AM 42.5317 -73.6375 356° North 266 306 5,200 -1,320 Descending Boston Center
10:37AM 42.6106 -73.6558 350° North 275 316 4,100 -600 Descending Boston Center
10:38AM 42.6772 -73.6686 352° North 237 273 4,100 -180 Level Boston Center
10:39AM 42.7522 -73.6700 359° North 252 290 3,800 -540 Descending Boston Center
10:40AM 42.8189 -73.6686 North 253 291 3,100 -420 Descending Boston Center
10:41AM 42.8831 -73.7011 340° North 247 284 3,000 -540 Descending Boston Center
10:42AM 42.9389 -73.7447 330° Northwest 238 274 2,100 -480 Descending Boston Center
10:43AM 42.9217 -73.7925 244° Southwest 150 173 2,100  Level Boston Center